sensor_id;sensor_type;location;lat;lon;timestamp;temperature;humidity
62589;DHT22;58504;48.770;9.148;2022-10-26T00:01:04;21.40;67.30
62589;DHT22;58504;48.770;9.148;2022-10-26T00:03:31;21.40;67.30
62589;DHT22;58504;48.770;9.148;2022-10-26T00:06:03;21.40;67.30
62589;DHT22;58504;48.770;9.148;2022-10-26T00:08:30;21.40;67.40
62589;DHT22;58504;48.770;9.148;2022-10-26T00:10:57;21.40;67.20
62589;DHT22;58504;48.770;9.148;2022-10-26T00:13:24;21.40;67.30
62589;DHT22;58504;48.770;9.148;2022-10-26T00:15:52;21.40;67.20
62589;DHT22;58504;48.770;9.148;2022-10-26T00:18:19;21.30;67.10
62589;DHT22;58504;48.770;9.148;2022-10-26T00:20:46;21.30;67.00
62589;DHT22;58504;48.770;9.148;2022-10-26T00:23:13;21.30;67.10
62589;DHT22;58504;48.770;9.148;2022-10-26T00:25:39;21.30;67.10
62589;DHT22;58504;48.770;9.148;2022-10-26T00:28:06;21.40;67.20
62589;DHT22;58504;48.770;9.148;2022-10-26T00:30:38;21.40;67.30
62589;DHT22;58504;48.770;9.148;2022-10-26T00:33:10;21.30;67.30
62589;DHT22;58504;48.770;9.148;2022-10-26T00:35:38;21.30;67.30
62589;DHT22;58504;48.770;9.148;2022-10-26T00:38:04;21.30;67.20
62589;DHT22;58504;48.770;9.148;2022-10-26T00:40:31;21.30;67.20
62589;DHT22;58504;48.770;9.148;2022-10-26T00:42:58;21.30;67.20
62589;DHT22;58504;48.770;9.148;2022-10-26T00:45:27;21.30;67.20
62589;DHT22;58504;48.770;9.148;2022-10-26T00:47:56;21.30;67.30
62589;DHT22;58504;48.770;9.148;2022-10-26T00:50:27;21.30;67.20
62589;DHT22;58504;48.770;9.148;2022-10-26T00:52:56;21.30;67.20
62589;DHT22;58504;48.770;9.148;2022-10-26T00:55:27;21.30;67.20
62589;DHT22;58504;48.770;9.148;2022-10-26T00:57:55;21.30;67.30
62589;DHT22;58504;48.770;9.148;2022-10-26T01:00:22;21.30;67.40
62589;DHT22;58504;48.770;9.148;2022-10-26T01:02:50;21.30;67.30
62589;DHT22;58504;48.770;9.148;2022-10-26T01:05:18;21.20;67.20
62589;DHT22;58504;48.770;9.148;2022-10-26T01:07:46;21.20;67.20
62589;DHT22;58504;48.770;9.148;2022-10-26T01:10:14;21.20;67.20
62589;DHT22;58504;48.770;9.148;2022-10-26T01:12:41;21.20;67.30
62589;DHT22;58504;48.770;9.148;2022-10-26T01:15:08;21.30;67.40
62589;DHT22;58504;48.770;9.148;2022-10-26T01:17:48;21.20;67.20
62589;DHT22;58504;48.770;9.148;2022-10-26T01:20:38;21.20;67.20
62589;DHT22;58504;48.770;9.148;2022-10-26T01:23:16;21.20;67.20
62589;DHT22;58504;48.770;9.148;2022-10-26T01:26:05;21.20;67.20
62589;DHT22;58504;48.770;9.148;2022-10-26T01:28:57;21.20;67.30
62589;DHT22;58504;48.770;9.148;2022-10-26T01:31:36;21.20;67.20
62589;DHT22;58504;48.770;9.148;2022-10-26T01:34:09;21.20;67.30
62589;DHT22;58504;48.770;9.148;2022-10-26T01:36:41;21.20;67.30
62589;DHT22;58504;48.770;9.148;2022-10-26T01:39:13;21.20;67.20
62589;DHT22;58504;48.770;9.148;2022-10-26T01:41:45;21.20;67.30
62589;DHT22;58504;48.770;9.148;2022-10-26T01:44:17;21.20;67.30
62589;DHT22;58504;48.770;9.148;2022-10-26T01:46:48;21.20;67.30
62589;DHT22;58504;48.770;9.148;2022-10-26T01:49:19;21.20;67.30
62589;DHT22;58504;48.770;9.148;2022-10-26T01:51:48;21.20;67.30
62589;DHT22;58504;48.770;9.148;2022-10-26T01:54:15;21.20;67.40
62589;DHT22;58504;48.770;9.148;2022-10-26T01:56:44;21.20;67.30
62589;DHT22;58504;48.770;9.148;2022-10-26T01:59:38;21.20;67.30
62589;DHT22;58504;48.770;9.148;2022-10-26T02:02:50;21.20;67.30
62589;DHT22;58504;48.770;9.148;2022-10-26T02:05:32;21.20;67.20
62589;DHT22;58504;48.770;9.148;2022-10-26T02:08:11;21.10;67.10
62589;DHT22;58504;48.770;9.148;2022-10-26T02:10:50;21.10;67.20
62589;DHT22;58504;48.770;9.148;2022-10-26T02:13:28;21.10;67.30
62589;DHT22;58504;48.770;9.148;2022-10-26T02:16:00;21.20;67.30
62589;DHT22;58504;48.770;9.148;2022-10-26T02:18:33;21.10;67.20
62589;DHT22;58504;48.770;9.148;2022-10-26T02:21:06;21.10;67.20
62589;DHT22;58504;48.770;9.148;2022-10-26T02:23:36;21.10;68.00
62589;DHT22;58504;48.770;9.148;2022-10-26T02:26:06;21.10;67.20
62589;DHT22;58504;48.770;9.148;2022-10-26T02:28:36;21.10;67.20
62589;DHT22;58504;48.770;9.148;2022-10-26T02:31:05;21.10;67.20
62589;DHT22;58504;48.770;9.148;2022-10-26T02:33:37;21.10;67.20
62589;DHT22;58504;48.770;9.148;2022-10-26T02:36:07;21.10;67.20
62589;DHT22;58504;48.770;9.148;2022-10-26T02:38:35;21.10;67.20
62589;DHT22;58504;48.770;9.148;2022-10-26T02:41:05;21.10;67.20
62589;DHT22;58504;48.770;9.148;2022-10-26T02:43:37;21.10;67.20
62589;DHT22;58504;48.770;9.148;2022-10-26T02:46:09;21.10;67.20
62589;DHT22;58504;48.770;9.148;2022-10-26T02:48:38;21.10;67.20
62589;DHT22;58504;48.770;9.148;2022-10-26T02:51:10;21.10;67.20
62589;DHT22;58504;48.770;9.148;2022-10-26T02:53:43;21.00;67.00
62589;DHT22;58504;48.770;9.148;2022-10-26T02:56:15;21.10;67.20
62589;DHT22;58504;48.770;9.148;2022-10-26T02:58:46;21.00;67.10
62589;DHT22;58504;48.770;9.148;2022-10-26T03:01:15;21.00;67.10
62589;DHT22;58504;48.770;9.148;2022-10-26T03:03:43;21.00;67.00
62589;DHT22;58504;48.770;9.148;2022-10-26T03:06:10;21.00;67.10
62589;DHT22;58504;48.770;9.148;2022-10-26T03:08:37;21.00;67.10
62589;DHT22;58504;48.770;9.148;2022-10-26T03:11:04;21.00;67.10
62589;DHT22;58504;48.770;9.148;2022-10-26T03:13:30;21.00;67.10
62589;DHT22;58504;48.770;9.148;2022-10-26T03:15:57;21.00;67.10
62589;DHT22;58504;48.770;9.148;2022-10-26T03:18:24;21.00;67.10
62589;DHT22;58504;48.770;9.148;2022-10-26T03:20:52;21.00;67.10
62589;DHT22;58504;48.770;9.148;2022-10-26T03:23:19;21.00;67.10
62589;DHT22;58504;48.770;9.148;2022-10-26T03:25:45;21.00;67.10
62589;DHT22;58504;48.770;9.148;2022-10-26T03:28:12;21.00;67.10
62589;DHT22;58504;48.770;9.148;2022-10-26T03:30:39;21.00;67.10
62589;DHT22;58504;48.770;9.148;2022-10-26T03:33:06;21.00;67.10
62589;DHT22;58504;48.770;9.148;2022-10-26T03:35:33;21.00;67.10
62589;DHT22;58504;48.770;9.148;2022-10-26T03:38:01;21.00;67.20
62589;DHT22;58504;48.770;9.148;2022-10-26T03:40:27;21.00;67.20
62589;DHT22;58504;48.770;9.148;2022-10-26T03:42:54;21.00;67.20
62589;DHT22;58504;48.770;9.148;2022-10-26T03:45:21;20.90;67.10
62589;DHT22;58504;48.770;9.148;2022-10-26T03:47:49;21.00;67.10
62589;DHT22;58504;48.770;9.148;2022-10-26T03:50:19;20.90;67.10
62589;DHT22;58504;48.770;9.148;2022-10-26T03:52:47;21.00;67.20
62589;DHT22;58504;48.770;9.148;2022-10-26T03:55:16;20.90;67.10
62589;DHT22;58504;48.770;9.148;2022-10-26T03:57:44;20.90;67.00
62589;DHT22;58504;48.770;9.148;2022-10-26T04:00:13;20.90;67.10
62589;DHT22;58504;48.770;9.148;2022-10-26T04:02:40;20.90;67.10
62589;DHT22;58504;48.770;9.148;2022-10-26T04:05:08;20.90;67.10
62589;DHT22;58504;48.770;9.148;2022-10-26T04:07:35;20.90;67.10
62589;DHT22;58504;48.770;9.148;2022-10-26T04:10:02;20.90;67.10
62589;DHT22;58504;48.770;9.148;2022-10-26T04:12:30;20.90;67.10
62589;DHT22;58504;48.770;9.148;2022-10-26T04:14:57;20.90;67.10
62589;DHT22;58504;48.770;9.148;2022-10-26T04:17:24;20.90;67.10
62589;DHT22;58504;48.770;9.148;2022-10-26T04:19:51;20.90;67.10
62589;DHT22;58504;48.770;9.148;2022-10-26T04:22:17;20.90;67.20
62589;DHT22;58504;48.770;9.148;2022-10-26T04:24:44;20.90;67.10
62589;DHT22;58504;48.770;9.148;2022-10-26T04:27:11;20.90;67.10
62589;DHT22;58504;48.770;9.148;2022-10-26T04:29:39;20.90;67.10
62589;DHT22;58504;48.770;9.148;2022-10-26T04:32:06;20.90;67.10
62589;DHT22;58504;48.770;9.148;2022-10-26T04:34:32;20.90;67.10
62589;DHT22;58504;48.770;9.148;2022-10-26T04:36:59;20.90;67.10
62589;DHT22;58504;48.770;9.148;2022-10-26T04:39:26;20.90;67.10
62589;DHT22;58504;48.770;9.148;2022-10-26T04:41:53;20.90;67.00
62589;DHT22;58504;48.770;9.148;2022-10-26T04:44:20;20.90;67.10
62589;DHT22;58504;48.770;9.148;2022-10-26T04:46:48;20.90;67.10
62589;DHT22;58504;48.770;9.148;2022-10-26T04:49:15;20.90;67.10
62589;DHT22;58504;48.770;9.148;2022-10-26T04:51:41;20.90;67.10
62589;DHT22;58504;48.770;9.148;2022-10-26T04:54:08;20.90;67.10
62589;DHT22;58504;48.770;9.148;2022-10-26T04:56:35;20.90;67.10
62589;DHT22;58504;48.770;9.148;2022-10-26T04:59:02;20.90;67.10
62589;DHT22;58504;48.770;9.148;2022-10-26T05:01:30;20.80;67.00
62589;DHT22;58504;48.770;9.148;2022-10-26T05:03:58;20.80;67.00
62589;DHT22;58504;48.770;9.148;2022-10-26T05:06:25;20.90;67.20
62589;DHT22;58504;48.770;9.148;2022-10-26T05:08:51;20.90;67.10
62589;DHT22;58504;48.770;9.148;2022-10-26T05:11:18;20.90;67.10
62589;DHT22;58504;48.770;9.148;2022-10-26T05:13:46;20.90;67.10
62589;DHT22;58504;48.770;9.148;2022-10-26T05:16:13;20.90;67.20
62589;DHT22;58504;48.770;9.148;2022-10-26T05:18:40;20.80;67.10
62589;DHT22;58504;48.770;9.148;2022-10-26T05:21:08;20.80;67.10
62589;DHT22;58504;48.770;9.148;2022-10-26T05:23:36;20.80;67.00
62589;DHT22;58504;48.770;9.148;2022-10-26T05:26:03;20.90;67.10
62589;DHT22;58504;48.770;9.148;2022-10-26T05:28:30;20.80;67.10
62589;DHT22;58504;48.770;9.148;2022-10-26T05:30:57;20.80;67.00
62589;DHT22;58504;48.770;9.148;2022-10-26T05:33:24;20.80;67.00
62589;DHT22;58504;48.770;9.148;2022-10-26T05:35:53;20.80;67.10
62589;DHT22;58504;48.770;9.148;2022-10-26T05:38:21;20.80;67.00
62589;DHT22;58504;48.770;9.148;2022-10-26T05:40:48;20.80;67.00
62589;DHT22;58504;48.770;9.148;2022-10-26T05:43:15;20.80;67.00
62589;DHT22;58504;48.770;9.148;2022-10-26T05:45:41;20.80;67.00
62589;DHT22;58504;48.770;9.148;2022-10-26T05:48:08;20.90;67.10
62589;DHT22;58504;48.770;9.148;2022-10-26T05:50:35;20.80;67.00
62589;DHT22;58504;48.770;9.148;2022-10-26T05:53:02;20.90;67.10
62589;DHT22;58504;48.770;9.148;2022-10-26T05:55:31;20.80;67.00
62589;DHT22;58504;48.770;9.148;2022-10-26T05:57:58;20.80;67.10
62589;DHT22;58504;48.770;9.148;2022-10-26T06:00:26;20.80;67.00
62589;DHT22;58504;48.770;9.148;2022-10-26T06:03:07;20.80;67.90
62589;DHT22;58504;48.770;9.148;2022-10-26T06:05:37;20.80;67.00
62589;DHT22;58504;48.770;9.148;2022-10-26T06:08:09;20.80;67.10
62589;DHT22;58504;48.770;9.148;2022-10-26T06:10:38;20.80;67.10
62589;DHT22;58504;48.770;9.148;2022-10-26T06:13:05;20.80;67.10
62589;DHT22;58504;48.770;9.148;2022-10-26T06:15:41;20.80;67.10
62589;DHT22;58504;48.770;9.148;2022-10-26T06:18:22;20.80;67.10
62589;DHT22;58504;48.770;9.148;2022-10-26T06:21:02;20.80;67.10
62589;DHT22;58504;48.770;9.148;2022-10-26T06:23:39;20.80;67.20
62589;DHT22;58504;48.770;9.148;2022-10-26T06:26:20;20.80;67.20
62589;DHT22;58504;48.770;9.148;2022-10-26T06:28:59;20.80;67.20
62589;DHT22;58504;48.770;9.148;2022-10-26T06:31:27;20.80;67.20
62589;DHT22;58504;48.770;9.148;2022-10-26T06:33:57;20.80;67.20
62589;DHT22;58504;48.770;9.148;2022-10-26T06:36:26;20.80;67.10
62589;DHT22;58504;48.770;9.148;2022-10-26T06:38:57;20.80;67.20
62589;DHT22;58504;48.770;9.148;2022-10-26T06:41:27;20.80;68.10
62589;DHT22;58504;48.770;9.148;2022-10-26T06:43:56;20.80;67.30
62589;DHT22;58504;48.770;9.148;2022-10-26T06:46:29;20.80;67.00
62589;DHT22;58504;48.770;9.148;2022-10-26T06:49:07;20.80;62.60
62589;DHT22;58504;48.770;9.148;2022-10-26T06:51:42;20.60;62.20
62589;DHT22;58504;48.770;9.148;2022-10-26T06:54:14;20.50;62.70
62589;DHT22;58504;48.770;9.148;2022-10-26T06:56:45;20.40;63.20
62589;DHT22;58504;48.770;9.148;2022-10-26T06:59:17;20.30;63.50
62589;DHT22;58504;48.770;9.148;2022-10-26T07:01:47;20.10;63.80
62589;DHT22;58504;48.770;9.148;2022-10-26T07:04:14;20.10;64.10
62589;DHT22;58504;48.770;9.148;2022-10-26T07:06:40;20.10;65.90
62589;DHT22;58504;48.770;9.148;2022-10-26T07:09:07;20.10;66.00
62589;DHT22;58504;48.770;9.148;2022-10-26T07:11:34;20.20;66.40
62589;DHT22;58504;48.770;9.148;2022-10-26T07:14:02;20.30;66.60
62589;DHT22;58504;48.770;9.148;2022-10-26T07:16:29;20.30;66.70
62589;DHT22;58504;48.770;9.148;2022-10-26T07:18:56;20.40;66.70
62589;DHT22;58504;48.770;9.148;2022-10-26T07:21:23;20.40;66.70
62589;DHT22;58504;48.770;9.148;2022-10-26T07:23:49;20.40;66.60
62589;DHT22;58504;48.770;9.148;2022-10-26T07:26:17;20.50;66.60
62589;DHT22;58504;48.770;9.148;2022-10-26T07:28:46;20.50;66.70
62589;DHT22;58504;48.770;9.148;2022-10-26T07:31:14;20.50;66.60
62589;DHT22;58504;48.770;9.148;2022-10-26T07:33:41;20.60;66.70
62589;DHT22;58504;48.770;9.148;2022-10-26T07:36:09;20.60;66.60
62589;DHT22;58504;48.770;9.148;2022-10-26T07:38:36;20.70;66.80
62589;DHT22;58504;48.770;9.148;2022-10-26T07:41:03;20.70;66.80
62589;DHT22;58504;48.770;9.148;2022-10-26T07:43:30;20.60;66.60
62589;DHT22;58504;48.770;9.148;2022-10-26T07:45:57;20.70;66.70
62589;DHT22;58504;48.770;9.148;2022-10-26T07:48:25;20.70;66.60
62589;DHT22;58504;48.770;9.148;2022-10-26T07:50:52;20.70;66.60
62589;DHT22;58504;48.770;9.148;2022-10-26T07:53:19;20.70;66.60
62589;DHT22;58504;48.770;9.148;2022-10-26T07:55:52;20.80;66.60
62589;DHT22;58504;48.770;9.148;2022-10-26T07:58:18;20.80;66.50
62589;DHT22;58504;48.770;9.148;2022-10-26T08:00:48;20.80;66.50
62589;DHT22;58504;48.770;9.148;2022-10-26T08:03:15;20.80;66.60
62589;DHT22;58504;48.770;9.148;2022-10-26T08:05:44;20.80;66.60
62589;DHT22;58504;48.770;9.148;2022-10-26T08:08:11;20.90;66.60
62589;DHT22;58504;48.770;9.148;2022-10-26T08:10:41;20.90;66.60
62589;DHT22;58504;48.770;9.148;2022-10-26T08:13:08;20.90;66.50
62589;DHT22;58504;48.770;9.148;2022-10-26T08:15:35;20.90;66.50
62589;DHT22;58504;48.770;9.148;2022-10-26T08:18:02;20.90;66.50
62589;DHT22;58504;48.770;9.148;2022-10-26T08:20:28;21.00;66.60
62589;DHT22;58504;48.770;9.148;2022-10-26T08:22:57;21.00;66.50
62589;DHT22;58504;48.770;9.148;2022-10-26T08:25:24;21.00;66.40
62589;DHT22;58504;48.770;9.148;2022-10-26T08:27:50;21.00;66.40
62589;DHT22;58504;48.770;9.148;2022-10-26T08:30:18;21.00;66.40
62589;DHT22;58504;48.770;9.148;2022-10-26T08:32:45;21.10;66.50
62589;DHT22;58504;48.770;9.148;2022-10-26T08:35:12;21.10;66.50
62589;DHT22;58504;48.770;9.148;2022-10-26T08:37:38;21.10;66.50
62589;DHT22;58504;48.770;9.148;2022-10-26T08:40:13;21.20;66.60
62589;DHT22;58504;48.770;9.148;2022-10-26T08:42:43;21.10;66.50
62589;DHT22;58504;48.770;9.148;2022-10-26T08:45:20;21.10;66.50
62589;DHT22;58504;48.770;9.148;2022-10-26T08:47:52;21.10;66.50
62589;DHT22;58504;48.770;9.148;2022-10-26T08:50:24;21.10;66.60
62589;DHT22;58504;48.770;9.148;2022-10-26T08:52:55;21.10;66.70
62589;DHT22;58504;48.770;9.148;2022-10-26T08:55:32;21.10;66.60
62589;DHT22;58504;48.770;9.148;2022-10-26T08:58:01;21.10;66.30
62589;DHT22;58504;48.770;9.148;2022-10-26T09:00:31;21.10;66.40
62589;DHT22;58504;48.770;9.148;2022-10-26T09:02:58;21.10;66.40
62589;DHT22;58504;48.770;9.148;2022-10-26T09:05:29;21.10;66.20
62589;DHT22;58504;48.770;9.148;2022-10-26T09:08:05;21.10;66.10
62589;DHT22;58504;48.770;9.148;2022-10-26T09:10:40;21.10;65.90
62589;DHT22;58504;48.770;9.148;2022-10-26T09:13:17;21.20;65.90
62589;DHT22;58504;48.770;9.148;2022-10-26T09:15:56;21.20;65.70
62589;DHT22;58504;48.770;9.148;2022-10-26T09:18:34;21.30;65.60
62589;DHT22;58504;48.770;9.148;2022-10-26T09:21:13;21.30;65.40
62589;DHT22;58504;48.770;9.148;2022-10-26T09:23:59;21.30;65.00
62589;DHT22;58504;48.770;9.148;2022-10-26T09:26:44;21.40;65.00
62589;DHT22;58504;48.770;9.148;2022-10-26T09:29:14;21.40;64.80
62589;DHT22;58504;48.770;9.148;2022-10-26T09:31:43;21.40;64.70
62589;DHT22;58504;48.770;9.148;2022-10-26T09:34:20;21.50;64.60
62589;DHT22;58504;48.770;9.148;2022-10-26T09:36:52;21.50;64.40
62589;DHT22;58504;48.770;9.148;2022-10-26T09:39:25;21.50;64.30
62589;DHT22;58504;48.770;9.148;2022-10-26T09:41:57;21.50;64.30
62589;DHT22;58504;48.770;9.148;2022-10-26T09:44:29;21.50;64.20
62589;DHT22;58504;48.770;9.148;2022-10-26T09:47:00;21.50;64.20
62589;DHT22;58504;48.770;9.148;2022-10-26T09:49:35;21.50;64.30
62589;DHT22;58504;48.770;9.148;2022-10-26T09:52:05;21.60;64.40
62589;DHT22;58504;48.770;9.148;2022-10-26T09:54:32;21.50;64.40
62589;DHT22;58504;48.770;9.148;2022-10-26T09:57:01;21.60;64.60
62589;DHT22;58504;48.770;9.148;2022-10-26T09:59:33;21.60;64.30
62589;DHT22;58504;48.770;9.148;2022-10-26T10:02:32;21.70;64.30
62589;DHT22;58504;48.770;9.148;2022-10-26T10:04:59;21.70;64.30
62589;DHT22;58504;48.770;9.148;2022-10-26T10:07:26;21.70;64.10
62589;DHT22;58504;48.770;9.148;2022-10-26T10:10:14;21.70;64.10
62589;DHT22;58504;48.770;9.148;2022-10-26T10:12:43;21.70;64.10
62589;DHT22;58504;48.770;9.148;2022-10-26T10:15:17;21.60;64.00
62589;DHT22;58504;48.770;9.148;2022-10-26T10:17:47;21.60;63.90
62589;DHT22;58504;48.770;9.148;2022-10-26T10:20:18;21.60;64.20
62589;DHT22;58504;48.770;9.148;2022-10-26T10:22:53;21.60;64.20
62589;DHT22;58504;48.770;9.148;2022-10-26T10:25:32;21.60;64.10
62589;DHT22;58504;48.770;9.148;2022-10-26T10:28:02;21.70;64.10
62589;DHT22;58504;48.770;9.148;2022-10-26T10:30:31;21.70;63.90
62589;DHT22;58504;48.770;9.148;2022-10-26T10:33:07;21.80;63.70
62589;DHT22;58504;48.770;9.148;2022-10-26T10:35:35;22.00;63.50
62589;DHT22;58504;48.770;9.148;2022-10-26T10:38:04;22.10;64.10
62589;DHT22;58504;48.770;9.148;2022-10-26T10:40:31;22.10;62.90
62589;DHT22;58504;48.770;9.148;2022-10-26T10:43:05;22.10;62.80
62589;DHT22;58504;48.770;9.148;2022-10-26T10:45:37;22.10;62.90
62589;DHT22;58504;48.770;9.148;2022-10-26T10:48:11;22.10;62.90
62589;DHT22;58504;48.770;9.148;2022-10-26T10:50:50;22.10;62.80
62589;DHT22;58504;48.770;9.148;2022-10-26T10:53:20;22.10;62.90
62589;DHT22;58504;48.770;9.148;2022-10-26T10:56:00;22.10;62.90
62589;DHT22;58504;48.770;9.148;2022-10-26T10:58:36;22.10;62.90
62589;DHT22;58504;48.770;9.148;2022-10-26T11:01:12;22.10;63.00
62589;DHT22;58504;48.770;9.148;2022-10-26T11:03:47;22.10;63.10
62589;DHT22;58504;48.770;9.148;2022-10-26T11:06:21;22.10;63.20
62589;DHT22;58504;48.770;9.148;2022-10-26T11:08:49;22.10;62.90
62589;DHT22;58504;48.770;9.148;2022-10-26T11:11:22;22.00;62.10
62589;DHT22;58504;48.770;9.148;2022-10-26T11:13:55;22.00;62.10
62589;DHT22;58504;48.770;9.148;2022-10-26T11:16:27;22.00;62.00
62589;DHT22;58504;48.770;9.148;2022-10-26T11:18:58;21.90;62.40
62589;DHT22;58504;48.770;9.148;2022-10-26T11:21:28;22.00;62.60
62589;DHT22;58504;48.770;9.148;2022-10-26T11:24:03;21.90;62.70
62589;DHT22;58504;48.770;9.148;2022-10-26T11:26:39;22.00;62.80
62589;DHT22;58504;48.770;9.148;2022-10-26T11:29:16;22.00;63.00
62589;DHT22;58504;48.770;9.148;2022-10-26T11:31:49;22.00;62.90
62589;DHT22;58504;48.770;9.148;2022-10-26T11:34:25;22.00;62.80
62589;DHT22;58504;48.770;9.148;2022-10-26T11:37:00;22.10;63.00
62589;DHT22;58504;48.770;9.148;2022-10-26T11:39:35;22.10;63.00
62589;DHT22;58504;48.770;9.148;2022-10-26T11:42:10;22.20;63.10
62589;DHT22;58504;48.770;9.148;2022-10-26T11:44:44;22.20;63.00
62589;DHT22;58504;48.770;9.148;2022-10-26T11:47:16;22.20;62.80
62589;DHT22;58504;48.770;9.148;2022-10-26T11:49:49;22.20;62.60
62589;DHT22;58504;48.770;9.148;2022-10-26T11:52:21;22.30;62.70
62589;DHT22;58504;48.770;9.148;2022-10-26T11:54:53;22.30;62.70
62589;DHT22;58504;48.770;9.148;2022-10-26T11:57:22;22.30;62.70
62589;DHT22;58504;48.770;9.148;2022-10-26T11:59:53;22.30;62.70
62589;DHT22;58504;48.770;9.148;2022-10-26T12:02:21;22.40;63.30
62589;DHT22;58504;48.770;9.148;2022-10-26T12:04:52;22.40;62.50
62589;DHT22;58504;48.770;9.148;2022-10-26T12:07:23;22.40;62.30
62589;DHT22;58504;48.770;9.148;2022-10-26T12:09:52;22.40;62.20
62589;DHT22;58504;48.770;9.148;2022-10-26T12:12:24;22.30;62.50
62589;DHT22;58504;48.770;9.148;2022-10-26T12:15:00;22.30;62.70
62589;DHT22;58504;48.770;9.148;2022-10-26T12:17:33;22.20;62.70
62589;DHT22;58504;48.770;9.148;2022-10-26T12:20:06;22.20;62.90
62589;DHT22;58504;48.770;9.148;2022-10-26T12:22:39;22.20;63.00
62589;DHT22;58504;48.770;9.148;2022-10-26T12:25:18;22.20;63.10
62589;DHT22;58504;48.770;9.148;2022-10-26T12:27:53;22.20;63.00
62589;DHT22;58504;48.770;9.148;2022-10-26T12:30:27;22.20;63.10
62589;DHT22;58504;48.770;9.148;2022-10-26T12:32:55;22.20;63.00
62589;DHT22;58504;48.770;9.148;2022-10-26T12:35:42;22.20;63.10
62589;DHT22;58504;48.770;9.148;2022-10-26T12:41:24;22.20;63.20
62589;DHT22;58504;48.770;9.148;2022-10-26T12:43:56;22.20;63.30
62589;DHT22;58504;48.770;9.148;2022-10-26T12:46:42;22.20;63.30
62589;DHT22;58504;48.770;9.148;2022-10-26T12:52:46;22.10;64.00
62589;DHT22;58504;48.770;9.148;2022-10-26T13:01:25;22.10;63.30
62589;DHT22;58504;48.770;9.148;2022-10-26T13:04:07;22.20;63.20
62589;DHT22;58504;48.770;9.148;2022-10-26T13:06:50;22.20;63.20
62589;DHT22;58504;48.770;9.148;2022-10-26T13:09:20;22.30;63.10
62589;DHT22;58504;48.770;9.148;2022-10-26T13:11:50;22.30;62.70
62589;DHT22;58504;48.770;9.148;2022-10-26T13:14:19;22.40;62.80
62589;DHT22;58504;48.770;9.148;2022-10-26T13:16:47;22.40;62.60
62589;DHT22;58504;48.770;9.148;2022-10-26T13:19:29;22.50;62.60
62589;DHT22;58504;48.770;9.148;2022-10-26T13:21:57;22.70;62.00
62589;DHT22;58504;48.770;9.148;2022-10-26T13:24:27;23.00;61.10
62589;DHT22;58504;48.770;9.148;2022-10-26T13:27:21;23.40;59.80
62589;DHT22;58504;48.770;9.148;2022-10-26T13:30:18;23.80;58.90
62589;DHT22;58504;48.770;9.148;2022-10-26T13:32:49;24.10;58.20
62589;DHT22;58504;48.770;9.148;2022-10-26T13:35:19;24.30;57.60
62589;DHT22;58504;48.770;9.148;2022-10-26T13:37:48;24.50;57.20
62589;DHT22;58504;48.770;9.148;2022-10-26T13:40:17;24.70;57.00
62589;DHT22;58504;48.770;9.148;2022-10-26T13:42:46;24.70;56.50
62589;DHT22;58504;48.770;9.148;2022-10-26T13:45:17;24.80;56.40
62589;DHT22;58504;48.770;9.148;2022-10-26T13:47:46;24.80;56.20
62589;DHT22;58504;48.770;9.148;2022-10-26T13:50:18;24.90;56.20
62589;DHT22;58504;48.770;9.148;2022-10-26T13:52:48;24.80;56.00
62589;DHT22;58504;48.770;9.148;2022-10-26T13:55:20;24.70;56.20
62589;DHT22;58504;48.770;9.148;2022-10-26T13:58:13;24.60;56.40
62589;DHT22;58504;48.770;9.148;2022-10-26T14:01:00;24.30;56.80
62589;DHT22;58504;48.770;9.148;2022-10-26T14:03:27;24.00;57.50
62589;DHT22;58504;48.770;9.148;2022-10-26T14:05:55;23.80;58.00
62589;DHT22;58504;48.770;9.148;2022-10-26T14:08:22;23.60;58.50
62589;DHT22;58504;48.770;9.148;2022-10-26T14:10:52;23.40;58.90
62589;DHT22;58504;48.770;9.148;2022-10-26T14:13:23;23.30;59.30
62589;DHT22;58504;48.770;9.148;2022-10-26T14:15:51;23.20;59.60
62589;DHT22;58504;48.770;9.148;2022-10-26T14:18:21;23.10;59.70
62589;DHT22;58504;48.770;9.148;2022-10-26T14:20:56;23.10;60.00
62589;DHT22;58504;48.770;9.148;2022-10-26T14:23:25;23.00;60.10
62589;DHT22;58504;48.770;9.148;2022-10-26T14:25:52;22.90;60.30
62589;DHT22;58504;48.770;9.148;2022-10-26T14:28:21;22.80;60.50
62589;DHT22;58504;48.770;9.148;2022-10-26T14:30:47;22.80;60.90
62589;DHT22;58504;48.770;9.148;2022-10-26T14:33:22;22.70;61.20
62589;DHT22;58504;48.770;9.148;2022-10-26T14:35:49;22.60;61.40
62589;DHT22;58504;48.770;9.148;2022-10-26T14:38:20;22.60;61.70
62589;DHT22;58504;48.770;9.148;2022-10-26T14:40:48;22.40;61.80
62589;DHT22;58504;48.770;9.148;2022-10-26T14:43:19;22.40;62.20
62589;DHT22;58504;48.770;9.148;2022-10-26T14:45:47;22.30;62.30
62589;DHT22;58504;48.770;9.148;2022-10-26T14:48:24;22.30;62.60
62589;DHT22;58504;48.770;9.148;2022-10-26T14:50:58;22.20;62.60
62589;DHT22;58504;48.770;9.148;2022-10-26T14:53:33;22.20;62.90
62589;DHT22;58504;48.770;9.148;2022-10-26T14:56:03;22.20;63.10
62589;DHT22;58504;48.770;9.148;2022-10-26T14:58:30;22.10;63.20
62589;DHT22;58504;48.770;9.148;2022-10-26T15:01:27;22.10;63.30
62589;DHT22;58504;48.770;9.148;2022-10-26T15:03:56;22.00;63.30
62589;DHT22;58504;48.770;9.148;2022-10-26T15:06:37;22.00;63.50
62589;DHT22;58504;48.770;9.148;2022-10-26T15:09:27;22.00;63.80
62589;DHT22;58504;48.770;9.148;2022-10-26T15:11:54;22.00;63.90
62589;DHT22;58504;48.770;9.148;2022-10-26T15:14:21;22.00;63.90
62589;DHT22;58504;48.770;9.148;2022-10-26T15:16:52;21.90;63.80
62589;DHT22;58504;48.770;9.148;2022-10-26T15:19:21;22.00;64.10
62589;DHT22;58504;48.770;9.148;2022-10-26T15:21:49;21.90;64.20
62589;DHT22;58504;48.770;9.148;2022-10-26T15:24:31;21.80;64.10
62589;DHT22;58504;48.770;9.148;2022-10-26T15:26:59;21.90;64.30
62589;DHT22;58504;48.770;9.148;2022-10-26T15:29:34;21.80;64.30
62589;DHT22;58504;48.770;9.148;2022-10-26T15:32:02;21.80;64.30
62589;DHT22;58504;48.770;9.148;2022-10-26T15:34:29;21.80;64.30
62589;DHT22;58504;48.770;9.148;2022-10-26T15:36:56;21.80;64.50
62589;DHT22;58504;48.770;9.148;2022-10-26T15:39:24;21.80;64.50
62589;DHT22;58504;48.770;9.148;2022-10-26T15:41:52;21.70;64.40
62589;DHT22;58504;48.770;9.148;2022-10-26T15:44:21;21.70;64.50
62589;DHT22;58504;48.770;9.148;2022-10-26T15:46:48;21.70;65.40
62589;DHT22;58504;48.770;9.148;2022-10-26T15:49:16;21.80;64.80
62589;DHT22;58504;48.770;9.148;2022-10-26T15:51:45;21.70;64.70
62589;DHT22;58504;48.770;9.148;2022-10-26T15:54:12;21.70;64.80
62589;DHT22;58504;48.770;9.148;2022-10-26T15:56:39;21.60;64.70
62589;DHT22;58504;48.770;9.148;2022-10-26T15:59:13;21.60;64.90
62589;DHT22;58504;48.770;9.148;2022-10-26T16:01:41;21.60;64.90
62589;DHT22;58504;48.770;9.148;2022-10-26T16:04:08;21.60;65.10
62589;DHT22;58504;48.770;9.148;2022-10-26T16:06:36;21.60;65.10